Terminal Aerodrome Forecast
Issued by NWS

Home | Current Version | Previous Version | Graphics & Text | Print | Product List | Glossary On
Versions: 1 2 3 4 5 6 7 8 9 10 11 12 13 14 15
000
FTUS43 KBIS 201120
TAFJMS
TAF
KJMS 201120Z 2012/2112 33006KT P6SM FEW120 SCT250
     FM210200 00000KT P6SM FEW140 FEW250=

USA.gov is the U.S. government's official web portal to all federal, state and local government web resources and services.